sensor_id;sensor_type;location;lat;lon;timestamp;pressure;altitude;pressure_sealevel;temperature;humidity
58739;BME280;44512;53.046;18.604;2024-03-08T00:08:10;102640.54;;;2.90;57.36
58739;BME280;44512;53.046;18.604;2024-03-08T00:18:39;102644.69;;;2.81;57.74
58739;BME280;44512;53.046;18.604;2024-03-08T00:29:07;102636.22;;;2.74;57.83
58739;BME280;44512;53.046;18.604;2024-03-08T00:39:36;102637.88;;;2.63;57.88
58739;BME280;44512;53.046;18.604;2024-03-08T00:50:05;102624.18;;;2.54;57.92
58739;BME280;44512;53.046;18.604;2024-03-08T01:00:33;102624.89;;;2.44;58.07
58739;BME280;44512;53.046;18.604;2024-03-08T01:11:01;102612.13;;;2.34;57.96
58739;BME280;44512;53.046;18.604;2024-03-08T01:21:30;102618.19;;;2.24;58.02
58739;BME280;44512;53.046;18.604;2024-03-08T01:31:58;102608.83;;;2.17;58.28
58739;BME280;44512;53.046;18.604;2024-03-08T01:42:26;102606.68;;;2.09;58.34
58739;BME280;44512;53.046;18.604;2024-03-08T01:52:55;102586.45;;;2.05;58.30
58739;BME280;44512;53.046;18.604;2024-03-08T02:03:24;102586.18;;;1.95;58.06
58739;BME280;44512;53.046;18.604;2024-03-08T02:13:52;102570.01;;;1.84;58.09
58739;BME280;44512;53.046;18.604;2024-03-08T02:24:20;102577.66;;;1.76;58.43
58739;BME280;44512;53.046;18.604;2024-03-08T02:34:49;102564.78;;;1.68;58.39
58739;BME280;44512;53.046;18.604;2024-03-08T02:45:17;102567.30;;;1.57;58.41
58739;BME280;44512;53.046;18.604;2024-03-08T02:55:46;102563.38;;;1.48;58.46
58739;BME280;44512;53.046;18.604;2024-03-08T03:06:14;102562.24;;;1.38;58.41
58739;BME280;44512;53.046;18.604;2024-03-08T03:16:43;102559.00;;;1.33;58.44
58739;BME280;44512;53.046;18.604;2024-03-08T03:27:12;102558.70;;;1.23;58.11
58739;BME280;44512;53.046;18.604;2024-03-08T03:37:39;102548.70;;;1.13;58.05
58739;BME280;44512;53.046;18.604;2024-03-08T03:48:08;102555.56;;;1.02;58.16
58739;BME280;44512;53.046;18.604;2024-03-08T03:58:36;102555.19;;;0.94;58.25
58739;BME280;44512;53.046;18.604;2024-03-08T04:09:05;102545.81;;;0.87;58.20
58739;BME280;44512;53.046;18.604;2024-03-08T04:19:34;102528.49;;;0.80;58.40
58739;BME280;44512;53.046;18.604;2024-03-08T04:30:05;102537.83;;;0.73;58.41
58739;BME280;44512;53.046;18.604;2024-03-08T04:40:31;102519.51;;;0.67;58.39
58739;BME280;44512;53.046;18.604;2024-03-08T04:50:59;102529.59;;;0.62;58.39
58739;BME280;44512;53.046;18.604;2024-03-08T05:01:27;102522.24;;;0.51;58.49
58739;BME280;44512;53.046;18.604;2024-03-08T05:11:56;102524.43;;;0.44;58.34
58739;BME280;44512;53.046;18.604;2024-03-08T05:22:24;102522.98;;;0.39;58.48
58739;BME280;44512;53.046;18.604;2024-03-08T05:32:53;102521.53;;;0.33;58.52
58739;BME280;44512;53.046;18.604;2024-03-08T05:43:21;102517.34;;;0.29;58.69
58739;BME280;44512;53.046;18.604;2024-03-08T05:53:50;102515.78;;;0.25;59.04
58739;BME280;44512;53.046;18.604;2024-03-08T06:04:18;102521.12;;;0.25;59.37
58739;BME280;44512;53.046;18.604;2024-03-08T06:14:46;102524.37;;;0.30;59.86
58739;BME280;44512;53.046;18.604;2024-03-08T06:25:15;102533.80;;;0.36;60.73
58739;BME280;44512;53.046;18.604;2024-03-08T06:35:44;102526.23;;;0.44;61.77
58739;BME280;44512;53.046;18.604;2024-03-08T06:46:12;102517.42;;;0.58;62.70
58739;BME280;44512;53.046;18.604;2024-03-08T06:56:40;102517.36;;;0.73;63.62
58739;BME280;44512;53.046;18.604;2024-03-08T07:07:09;102518.13;;;0.90;64.32
58739;BME280;44512;53.046;18.604;2024-03-08T07:17:37;102514.41;;;1.07;64.85
58739;BME280;44512;53.046;18.604;2024-03-08T07:28:06;102523.96;;;1.25;65.14
58739;BME280;44512;53.046;18.604;2024-03-08T07:38:35;102503.36;;;1.41;65.28
58739;BME280;44512;53.046;18.604;2024-03-08T07:49:03;102511.13;;;1.59;65.51
58739;BME280;44512;53.046;18.604;2024-03-08T07:59:32;102508.98;;;1.78;65.71
58739;BME280;44512;53.046;18.604;2024-03-08T08:10:00;102498.05;;;1.95;65.56
58739;BME280;44512;53.046;18.604;2024-03-08T08:20:29;102489.80;;;2.13;65.49
58739;BME280;44512;53.046;18.604;2024-03-08T08:30:57;102500.20;;;2.30;65.37
58739;BME280;44512;53.046;18.604;2024-03-08T08:41:26;102497.23;;;2.47;65.14
58739;BME280;44512;53.046;18.604;2024-03-08T08:51:54;102493.31;;;2.66;64.86
58739;BME280;44512;53.046;18.604;2024-03-08T09:02:23;102481.55;;;2.81;64.70
58739;BME280;44512;53.046;18.604;2024-03-08T09:12:51;102483.14;;;2.96;64.42
58739;BME280;44512;53.046;18.604;2024-03-08T09:23:20;102477.56;;;3.12;63.02
58739;BME280;44512;53.046;18.604;2024-03-08T09:33:48;102473.91;;;3.26;62.01
58739;BME280;44512;53.046;18.604;2024-03-08T09:44:17;102467.43;;;3.41;61.22
58739;BME280;44512;53.046;18.604;2024-03-08T09:54:45;102463.21;;;3.62;60.55
58739;BME280;44512;53.046;18.604;2024-03-08T10:05:14;102443.20;;;3.79;58.55
58739;BME280;44512;53.046;18.604;2024-03-08T10:15:42;102444.90;;;4.04;57.40
58739;BME280;44512;53.046;18.604;2024-03-08T10:26:12;102429.84;;;4.14;57.26
58739;BME280;44512;53.046;18.604;2024-03-08T10:36:40;102427.69;;;4.31;57.17
58739;BME280;44512;53.046;18.604;2024-03-08T10:47:15;102420.66;;;4.52;56.94
58739;BME280;44512;53.046;18.604;2024-03-08T10:57:36;102425.80;;;4.66;56.75
58739;BME280;44512;53.046;18.604;2024-03-08T11:23:36;102402.39;;;5.02;55.40
58739;BME280;44512;53.046;18.604;2024-03-08T11:34:15;102392.12;;;5.18;54.90
58739;BME280;44512;53.046;18.604;2024-03-08T11:44:33;102376.69;;;5.32;54.23
58739;BME280;44512;53.046;18.604;2024-03-08T11:55:02;102363.51;;;5.40;54.30
58739;BME280;44512;53.046;18.604;2024-03-08T12:05:30;102354.12;;;5.66;52.80
58739;BME280;44512;53.046;18.604;2024-03-08T12:15:59;102341.16;;;5.71;52.34
58739;BME280;44512;53.046;18.604;2024-03-08T12:26:27;102336.18;;;5.88;51.78
58739;BME280;44512;53.046;18.604;2024-03-08T12:36:55;102326.38;;;5.98;51.49
58739;BME280;44512;53.046;18.604;2024-03-08T12:47:23;102311.70;;;6.02;51.78
58739;BME280;44512;53.046;18.604;2024-03-08T12:57:52;102299.62;;;6.17;51.65
58739;BME280;44512;53.046;18.604;2024-03-08T13:08:20;102294.02;;;6.30;51.53
58739;BME280;44512;53.046;18.604;2024-03-08T13:18:48;102276.86;;;6.52;50.63
58739;BME280;44512;53.046;18.604;2024-03-08T13:29:17;102280.33;;;6.73;50.53
58739;BME280;44512;53.046;18.604;2024-03-08T13:39:45;102255.01;;;6.95;50.23
58739;BME280;44512;53.046;18.604;2024-03-08T13:50:14;102248.39;;;7.19;49.66
58739;BME280;44512;53.046;18.604;2024-03-08T14:00:42;102240.16;;;7.40;49.19
58739;BME280;44512;53.046;18.604;2024-03-08T14:11:10;102239.58;;;7.65;48.70
58739;BME280;44512;53.046;18.604;2024-03-08T14:21:39;102226.76;;;7.87;47.91
58739;BME280;44512;53.046;18.604;2024-03-08T14:32:08;102209.36;;;8.08;47.78
58739;BME280;44512;53.046;18.604;2024-03-08T14:42:36;102215.64;;;8.37;46.90
58739;BME280;44512;53.046;18.604;2024-03-08T14:53:04;102206.84;;;8.62;46.39
58739;BME280;44512;53.046;18.604;2024-03-08T15:03:35;102200.70;;;8.87;46.17
58739;BME280;44512;53.046;18.604;2024-03-08T15:14:01;102188.88;;;9.24;45.34
58739;BME280;44512;53.046;18.604;2024-03-08T15:24:29;102181.15;;;9.47;45.44
58739;BME280;44512;53.046;18.604;2024-03-08T15:34:58;102183.66;;;10.93;42.56
58739;BME280;44512;53.046;18.604;2024-03-08T15:45:26;102163.19;;;10.24;43.16
58739;BME280;44512;53.046;18.604;2024-03-08T15:55:54;102166.05;;;9.97;43.25
58739;BME280;44512;53.046;18.604;2024-03-08T16:06:23;102165.95;;;9.72;43.27
58739;BME280;44512;53.046;18.604;2024-03-08T16:16:51;102157.20;;;9.52;43.65
58739;BME280;44512;53.046;18.604;2024-03-08T16:27:20;102153.76;;;9.24;44.31
58739;BME280;44512;53.046;18.604;2024-03-08T16:37:48;102158.72;;;8.93;45.09
58739;BME280;44512;53.046;18.604;2024-03-08T16:48:17;102147.16;;;8.65;45.79
58739;BME280;44512;53.046;18.604;2024-03-08T16:58:45;102150.60;;;8.40;46.42
58739;BME280;44512;53.046;18.604;2024-03-08T17:09:13;102152.27;;;8.13;47.48
58739;BME280;44512;53.046;18.604;2024-03-08T17:19:42;102147.25;;;7.91;47.65
58739;BME280;44512;53.046;18.604;2024-03-08T17:30:11;102150.16;;;7.70;47.84
58739;BME280;44512;53.046;18.604;2024-03-08T17:40:41;102148.52;;;7.49;48.08
58739;BME280;44512;53.046;18.604;2024-03-08T17:51:07;102151.82;;;7.34;48.54
58739;BME280;44512;53.046;18.604;2024-03-08T18:01:36;102141.95;;;7.05;49.00
58739;BME280;44512;53.046;18.604;2024-03-08T18:12:05;102140.95;;;6.77;49.33
58739;BME280;44512;53.046;18.604;2024-03-08T18:22:32;102137.68;;;6.54;49.69
58739;BME280;44512;53.046;18.604;2024-03-08T18:33:01;102145.01;;;6.33;49.86
58739;BME280;44512;53.046;18.604;2024-03-08T18:43:29;102142.84;;;6.17;50.25
58739;BME280;44512;53.046;18.604;2024-03-08T18:53:57;102140.23;;;5.96;50.54
58739;BME280;44512;53.046;18.604;2024-03-08T19:04:26;102133.34;;;5.82;50.58
58739;BME280;44512;53.046;18.604;2024-03-08T19:14:54;102138.41;;;5.75;50.33
58739;BME280;44512;53.046;18.604;2024-03-08T19:25:24;102133.84;;;5.66;50.40
58739;BME280;44512;53.046;18.604;2024-03-08T19:35:52;102136.62;;;5.55;50.71
58739;BME280;44512;53.046;18.604;2024-03-08T19:46:20;102127.79;;;5.43;51.10
58739;BME280;44512;53.046;18.604;2024-03-08T19:56:48;102134.34;;;5.30;51.44
58739;BME280;44512;53.046;18.604;2024-03-08T20:07:17;102121.70;;;5.20;51.87
58739;BME280;44512;53.046;18.604;2024-03-08T20:17:46;102113.72;;;5.09;52.19
58739;BME280;44512;53.046;18.604;2024-03-08T20:28:14;102113.65;;;5.00;52.75
58739;BME280;44512;53.046;18.604;2024-03-08T20:38:43;102105.98;;;4.95;53.11
58739;BME280;44512;53.046;18.604;2024-03-08T20:49:11;102088.19;;;4.94;53.27
58739;BME280;44512;53.046;18.604;2024-03-08T20:59:39;102081.66;;;4.87;53.39
58739;BME280;44512;53.046;18.604;2024-03-08T21:10:08;102080.66;;;4.88;53.25
58739;BME280;44512;53.046;18.604;2024-03-08T21:20:36;102080.20;;;4.83;53.25
58739;BME280;44512;53.046;18.604;2024-03-08T21:31:04;102072.23;;;4.72;53.31
58739;BME280;44512;53.046;18.604;2024-03-08T21:41:33;102065.92;;;4.61;53.34
58739;BME280;44512;53.046;18.604;2024-03-08T21:52:02;102056.48;;;4.46;53.35
58739;BME280;44512;53.046;18.604;2024-03-08T22:02:31;102049.96;;;4.28;53.29
58739;BME280;44512;53.046;18.604;2024-03-08T22:12:59;102040.13;;;4.17;53.03
58739;BME280;44512;53.046;18.604;2024-03-08T22:23:27;102036.84;;;4.13;53.07
58739;BME280;44512;53.046;18.604;2024-03-08T22:33:55;102038.61;;;4.03;53.05
58739;BME280;44512;53.046;18.604;2024-03-08T22:44:24;102037.39;;;3.96;53.16
58739;BME280;44512;53.046;18.604;2024-03-08T22:54:53;102027.69;;;3.84;53.36
58739;BME280;44512;53.046;18.604;2024-03-08T23:05:21;102023.78;;;3.77;53.53
58739;BME280;44512;53.046;18.604;2024-03-08T23:15:49;102027.47;;;3.64;53.78
58739;BME280;44512;53.046;18.604;2024-03-08T23:26:18;102020.80;;;3.48;53.99
58739;BME280;44512;53.046;18.604;2024-03-08T23:36:46;102021.75;;;3.35;54.42
58739;BME280;44512;53.046;18.604;2024-03-08T23:47:15;102013.14;;;3.21;54.35
58739;BME280;44512;53.046;18.604;2024-03-08T23:57:44;102010.70;;;3.06;54.45
